createdAt,value
2023-01-15T00:00:19.253Z,5.94
2023-01-15T00:01:34.985Z,5.94
2023-01-15T00:02:43.677Z,5.93
2023-01-15T00:03:49.233Z,5.97
2023-01-15T00:04:54.995Z,5.98
2023-01-15T00:06:07.408Z,6.00
2023-01-15T00:07:11.130Z,6.02
2023-01-15T00:08:14.924Z,6.03
2023-01-15T00:09:18.741Z,6.03
2023-01-15T00:10:22.400Z,6.06
2023-01-15T00:11:25.951Z,6.06
2023-01-15T00:12:29.515Z,6.08
2023-01-15T00:13:33.190Z,6.08
2023-01-15T00:14:36.846Z,6.08
2023-01-15T00:15:40.874Z,6.09
2023-01-15T00:16:45.508Z,6.06
2023-01-15T00:17:49.212Z,6.06
2023-01-15T00:18:56.317Z,6.05
2023-01-15T00:19:59.805Z,6.04
2023-01-15T00:21:07.331Z,6.06
2023-01-15T00:22:10.758Z,6.06
2023-01-15T00:23:34.393Z,6.05
2023-01-15T00:24:56.366Z,6.07
2023-01-15T00:26:18.458Z,6.08
2023-01-15T00:27:40.714Z,6.09
2023-01-15T00:28:44.353Z,6.09
2023-01-15T00:29:47.908Z,6.10
2023-01-15T00:30:51.533Z,6.11
2023-01-15T00:32:01.931Z,6.11
2023-01-15T00:33:05.589Z,6.10
2023-01-15T00:34:09.585Z,6.11
2023-01-15T00:35:18.015Z,6.14
2023-01-15T00:36:23.212Z,6.07
2023-01-15T00:37:27.268Z,6.10
2023-01-15T00:38:30.918Z,6.12
2023-01-15T00:39:35.752Z,6.12
2023-01-15T00:40:39.270Z,6.10
2023-01-15T00:41:42.843Z,6.12
2023-01-15T00:42:53.890Z,6.11
2023-01-15T00:43:58.359Z,6.12
2023-01-15T00:45:09.987Z,6.13
2023-01-15T00:46:13.985Z,6.14
2023-01-15T00:47:17.459Z,6.15
2023-01-15T00:48:20.945Z,6.15
2023-01-15T00:49:24.788Z,6.17
2023-01-15T00:50:28.439Z,6.17
2023-01-15T00:51:32.675Z,6.18
2023-01-15T00:52:36.476Z,6.16
2023-01-15T00:53:40.348Z,6.18
2023-01-15T00:54:46.107Z,6.16
2023-01-15T00:55:49.759Z,6.18
2023-01-15T00:56:53.298Z,6.18
2023-01-15T00:57:56.789Z,6.16
2023-01-15T00:59:04.075Z,6.16
2023-01-15T01:00:11.816Z,6.16
2023-01-15T01:01:16.177Z,6.17
2023-01-15T01:02:20.470Z,6.17
2023-01-15T01:03:25.261Z,6.18
2023-01-15T01:04:28.831Z,6.19
2023-01-15T01:05:32.794Z,6.20
2023-01-15T01:06:36.424Z,6.22
2023-01-15T01:07:40.239Z,6.21
2023-01-15T01:08:47.546Z,6.24
2023-01-15T01:09:52.283Z,6.23
2023-01-15T01:11:14.852Z,6.26
2023-01-15T01:12:22.015Z,6.28
2023-01-15T01:13:25.836Z,6.29
2023-01-15T01:14:29.761Z,6.30
2023-01-15T01:15:38.183Z,6.31
2023-01-15T01:16:42.456Z,6.30
2023-01-15T01:17:46.290Z,6.30
2023-01-15T01:18:50.088Z,6.31
2023-01-15T01:19:53.844Z,6.30
2023-01-15T01:20:57.553Z,6.30
2023-01-15T01:22:01.186Z,6.31
2023-01-15T01:23:04.840Z,6.31
2023-01-15T01:24:10.416Z,6.29
2023-01-15T01:25:13.895Z,6.30
2023-01-15T01:26:17.647Z,6.29
2023-01-15T01:27:21.393Z,6.29
2023-01-15T01:28:25.116Z,6.24
2023-01-15T01:29:28.860Z,6.26
2023-01-15T01:30:32.461Z,6.23
2023-01-15T01:31:36.221Z,6.22
2023-01-15T01:32:40.295Z,6.22
2023-01-15T01:33:44.557Z,6.24
2023-01-15T01:34:48.137Z,6.20
2023-01-15T01:35:51.979Z,6.22
2023-01-15T01:36:55.747Z,6.20
2023-01-15T01:37:59.483Z,6.20
2023-01-15T01:39:05.421Z,6.16
2023-01-15T01:40:10.092Z,6.18
2023-01-15T01:41:13.560Z,6.19
2023-01-15T01:42:18.964Z,6.15
2023-01-15T01:43:29.617Z,6.18
2023-01-15T01:44:33.187Z,6.19
2023-01-15T01:45:36.844Z,6.18
2023-01-15T01:46:40.370Z,6.22
2023-01-15T01:47:44.715Z,6.23
2023-01-15T01:48:52.531Z,6.24
2023-01-15T01:50:06.677Z,6.28
2023-01-15T01:51:10.528Z,6.28
2023-01-15T01:52:25.447Z,6.32
2023-01-15T01:53:32.254Z,6.36
2023-01-15T01:54:38.835Z,6.34
2023-01-15T01:55:42.898Z,6.39
2023-01-15T01:56:49.949Z,6.40
2023-01-15T01:57:59.924Z,6.44
2023-01-15T01:59:07.109Z,6.44
2023-01-15T02:00:12.608Z,6.49
2023-01-15T02:01:17.842Z,6.50
2023-01-15T02:02:23.484Z,6.52
2023-01-15T02:03:35.706Z,6.56
2023-01-15T02:04:40.746Z,6.59
2023-01-15T02:05:52.717Z,6.65
2023-01-15T02:06:58.958Z,6.67
2023-01-15T02:08:02.494Z,6.68
2023-01-15T02:09:06.797Z,6.72
2023-01-15T02:10:19.761Z,6.76
2023-01-15T02:11:25.033Z,6.78
2023-01-15T02:12:39.293Z,6.83
2023-01-15T02:14:14.162Z,6.85
2023-01-15T02:15:54.369Z,6.78
2023-01-15T02:17:20.572Z,6.80
2023-01-15T02:18:38.183Z,6.83
2023-01-15T02:19:59.306Z,6.93
2023-01-15T02:21:24.702Z,6.96
2023-01-15T02:22:44.981Z,6.97
2023-01-15T02:24:13.488Z,7.02
2023-01-15T02:25:31.134Z,7.08
2023-01-15T02:27:26.585Z,7.08
2023-01-15T02:28:42.693Z,7.17
2023-01-15T02:29:53.136Z,7.25
2023-01-15T02:31:27.110Z,7.30
2023-01-15T02:32:40.968Z,7.31
2023-01-15T02:33:56.466Z,7.34
2023-01-15T02:35:29.548Z,7.39
2023-01-15T02:36:40.453Z,7.41
2023-01-15T02:37:52.186Z,7.45
2023-01-15T02:39:02.429Z,7.49
2023-01-15T02:40:07.602Z,7.50
2023-01-15T02:41:18.061Z,7.52
2023-01-15T02:42:25.999Z,7.53
2023-01-15T02:43:36.822Z,7.53
2023-01-15T02:44:49.775Z,7.58
2023-01-15T02:45:59.333Z,7.60
2023-01-15T02:47:06.366Z,7.62
2023-01-15T02:48:15.655Z,7.65
2023-01-15T02:49:23.836Z,7.67
2023-01-15T02:50:36.503Z,7.69
2023-01-15T02:52:06.622Z,7.69
2023-01-15T02:53:20.688Z,7.69
2023-01-15T02:54:30.508Z,7.71
2023-01-15T02:55:43.215Z,7.74
2023-01-15T02:56:49.999Z,7.78
2023-01-15T02:58:00.129Z,7.81
2023-01-15T02:59:12.313Z,7.82
2023-01-15T03:02:14.111Z,7.81
2023-01-15T03:03:33.770Z,7.82
2023-01-15T03:05:01.027Z,7.84
2023-01-15T03:06:31.908Z,7.83
2023-01-15T03:07:46.903Z,7.77
2023-01-15T03:08:50.844Z,7.73
2023-01-15T03:09:57.577Z,7.76
2023-01-15T03:11:19.201Z,7.78
2023-01-15T03:12:34.544Z,7.81
2023-01-15T03:14:09.244Z,7.75
2023-01-15T03:15:40.577Z,7.73
2023-01-15T03:16:56.681Z,7.79
2023-01-15T03:18:06.026Z,7.79
2023-01-15T03:19:47.165Z,7.80
2023-01-15T03:20:58.876Z,7.78
2023-01-15T03:22:33.516Z,7.75
2023-01-15T03:23:45.768Z,7.74
2023-01-15T03:25:22.079Z,7.73
2023-01-15T03:26:26.051Z,7.73
2023-01-15T03:27:29.910Z,7.74
2023-01-15T03:28:38.251Z,7.76
2023-01-15T03:29:55.837Z,7.81
2023-01-15T03:31:00.234Z,7.76
2023-01-15T03:32:03.988Z,7.77
2023-01-15T03:33:11.780Z,7.79
2023-01-15T03:34:15.828Z,7.78
2023-01-15T03:35:49.945Z,7.79
2023-01-15T03:36:53.672Z,7.80
2023-01-15T03:37:57.229Z,7.81
2023-01-15T03:39:01.341Z,7.83
2023-01-15T03:40:06.953Z,7.83
2023-01-15T03:41:44.503Z,7.79
2023-01-15T03:43:31.737Z,7.81
2023-01-15T03:45:13.112Z,7.82
2023-01-15T03:46:42.637Z,7.83
2023-01-15T03:48:00.739Z,7.85
2023-01-15T03:49:29.340Z,7.95
2023-01-15T03:50:38.459Z,7.96
2023-01-15T03:52:07.131Z,7.99
2023-01-15T03:53:38.242Z,8.01
2023-01-15T03:55:05.108Z,8.02
2023-01-15T03:56:38.348Z,8.00
2023-01-15T03:58:11.983Z,8.06
2023-01-15T03:59:30.950Z,8.10
2023-01-15T04:00:52.616Z,8.12
2023-01-15T04:01:57.943Z,8.14
2023-01-15T04:03:06.257Z,8.18
2023-01-15T04:04:14.081Z,8.22
2023-01-15T04:05:18.820Z,8.27
2023-01-15T04:06:25.848Z,8.32
2023-01-15T04:07:31.560Z,8.32
2023-01-15T04:08:40.818Z,8.35
2023-01-15T04:09:44.566Z,8.37
2023-01-15T04:10:59.619Z,8.39
2023-01-15T04:12:03.537Z,8.38
2023-01-15T04:13:07.564Z,8.40
2023-01-15T04:14:15.074Z,8.43
2023-01-15T04:15:19.288Z,8.43
2023-01-15T04:16:32.654Z,8.47
2023-01-15T04:17:36.206Z,8.48
2023-01-15T04:18:39.836Z,8.48
2023-01-15T04:19:44.462Z,8.50
2023-01-15T04:20:48.999Z,8.52
2023-01-15T04:21:52.564Z,8.56
2023-01-15T04:22:56.147Z,8.58
2023-01-15T04:23:59.764Z,8.60
2023-01-15T04:25:05.506Z,8.61
2023-01-15T04:26:09.289Z,8.61
2023-01-15T04:27:13.380Z,8.63
2023-01-15T04:28:17.105Z,8.62
2023-01-15T04:29:21.101Z,8.64
2023-01-15T04:30:24.669Z,8.62
2023-01-15T04:31:28.159Z,8.55
2023-01-15T04:32:31.694Z,8.53
2023-01-15T04:33:35.249Z,8.49
2023-01-15T04:34:38.814Z,8.51
2023-01-15T04:35:42.315Z,8.51
2023-01-15T04:36:48.271Z,8.49
2023-01-15T04:37:59.874Z,8.53
2023-01-15T04:39:06.243Z,8.50
2023-01-15T04:40:30.753Z,8.50
2023-01-15T04:41:53.168Z,8.45
2023-01-15T04:43:15.744Z,8.41
2023-01-15T04:44:19.473Z,8.40
2023-01-15T04:45:23.555Z,8.38
2023-01-15T04:46:27.100Z,8.39
2023-01-15T04:47:31.937Z,8.38
2023-01-15T04:48:35.555Z,8.40
2023-01-15T04:49:39.429Z,8.41
2023-01-15T04:50:43.392Z,8.37
2023-01-15T04:51:47.454Z,8.39
2023-01-15T04:52:51.509Z,8.35
2023-01-15T04:53:55.039Z,8.35
2023-01-15T04:55:01.575Z,8.35
2023-01-15T04:56:06.559Z,8.36
2023-01-15T04:57:12.701Z,8.42
2023-01-15T04:58:16.361Z,8.41
2023-01-15T04:59:27.006Z,8.41
2023-01-15T05:00:31.061Z,8.41
2023-01-15T05:01:35.432Z,8.40
2023-01-15T05:02:39.172Z,8.39
2023-01-15T05:03:43.174Z,8.41
2023-01-15T05:04:47.477Z,8.39
2023-01-15T05:05:51.452Z,8.39
2023-01-15T05:06:55.376Z,8.37
2023-01-15T05:07:59.112Z,8.36
2023-01-15T05:09:05.253Z,8.39
2023-01-15T05:10:10.231Z,8.37
2023-01-15T05:11:14.241Z,8.39
2023-01-15T05:12:18.541Z,8.38
2023-01-15T05:13:22.593Z,8.38
2023-01-15T05:14:26.499Z,8.37
2023-01-15T05:15:30.253Z,8.38
2023-01-15T05:16:36.243Z,8.40
2023-01-15T05:17:39.878Z,8.41
2023-01-15T05:18:45.616Z,8.40
2023-01-15T05:19:49.638Z,8.41
2023-01-15T05:20:53.167Z,8.40
2023-01-15T05:21:56.934Z,8.37
2023-01-15T05:23:01.041Z,8.38
2023-01-15T05:24:08.954Z,8.36
2023-01-15T05:25:12.606Z,8.40
2023-01-15T05:26:17.015Z,8.42
2023-01-15T05:27:20.912Z,8.40
2023-01-15T05:28:24.900Z,8.37
2023-01-15T05:29:28.808Z,8.38
2023-01-15T05:30:32.336Z,8.41
2023-01-15T05:31:36.156Z,8.40
2023-01-15T05:32:40.132Z,8.41
2023-01-15T05:33:46.844Z,8.42
2023-01-15T05:34:50.654Z,8.40
2023-01-15T05:35:54.503Z,8.41
2023-01-15T05:36:58.037Z,8.42
2023-01-15T05:38:01.734Z,8.42
2023-01-15T05:39:06.261Z,8.45
2023-01-15T05:40:10.802Z,8.47
2023-01-15T05:41:37.295Z,8.47
2023-01-15T05:42:40.726Z,8.47
2023-01-15T05:43:44.591Z,8.49
2023-01-15T05:44:48.214Z,8.49
2023-01-15T05:45:51.903Z,8.48
2023-01-15T05:47:00.232Z,8.50
2023-01-15T05:48:04.046Z,8.54
2023-01-15T05:49:18.962Z,8.57
2023-01-15T05:50:23.546Z,8.59
2023-01-15T05:51:27.177Z,8.55
2023-01-15T05:52:31.335Z,8.56
2023-01-15T05:53:35.105Z,8.57
2023-01-15T05:54:39.241Z,8.60
2023-01-15T05:55:42.964Z,8.59
2023-01-15T05:56:47.886Z,8.57
2023-01-15T05:57:51.591Z,8.61
2023-01-15T05:58:55.482Z,8.60
2023-01-15T05:59:59.908Z,8.59
2023-01-15T06:01:08.851Z,8.61
2023-01-15T06:02:12.889Z,8.66
2023-01-15T06:03:17.690Z,8.67
2023-01-15T06:04:25.241Z,8.66
2023-01-15T06:05:30.326Z,8.67
2023-01-15T06:06:36.191Z,8.67
2023-01-15T06:07:40.087Z,8.67
2023-01-15T06:08:46.547Z,8.71
2023-01-15T06:09:51.231Z,8.72
2023-01-15T06:10:55.419Z,8.75
2023-01-15T06:12:02.404Z,8.73
2023-01-15T06:13:06.016Z,8.72
2023-01-15T06:14:12.886Z,8.73
2023-01-15T06:15:16.674Z,8.74
2023-01-15T06:16:21.998Z,8.77
2023-01-15T06:17:26.587Z,8.80
2023-01-15T06:18:31.390Z,8.83
2023-01-15T06:19:36.740Z,8.86
2023-01-15T06:20:42.372Z,8.87
2023-01-15T06:21:46.580Z,8.87
2023-01-15T06:22:50.349Z,8.84
2023-01-15T06:23:56.941Z,8.83
2023-01-15T06:25:01.587Z,8.84
2023-01-15T06:26:13.944Z,8.85
2023-01-15T06:27:17.641Z,8.84
2023-01-15T06:28:21.286Z,8.87
2023-01-15T06:29:28.256Z,8.88
2023-01-15T06:30:32.146Z,8.88
2023-01-15T06:31:35.854Z,8.90
2023-01-15T06:32:46.617Z,8.92
2023-01-15T06:33:51.074Z,8.92
2023-01-15T06:34:55.182Z,8.92
2023-01-15T06:35:58.813Z,8.93
2023-01-15T06:37:02.463Z,8.91
2023-01-15T06:38:06.197Z,8.94
2023-01-15T06:39:10.669Z,8.95
2023-01-15T06:40:14.601Z,8.96
2023-01-15T06:41:43.502Z,9.01
2023-01-15T06:43:06.270Z,9.01
2023-01-15T06:44:35.120Z,9.01
2023-01-15T06:46:01.059Z,9.00
2023-01-15T06:47:21.934Z,9.01
2023-01-15T06:48:28.139Z,9.02
2023-01-15T06:49:34.598Z,9.05
2023-01-15T06:50:38.845Z,9.06
2023-01-15T06:51:42.559Z,9.06
2023-01-15T06:52:46.066Z,9.06
2023-01-15T06:53:49.659Z,9.04
2023-01-15T06:54:55.792Z,9.06
2023-01-15T06:56:01.812Z,9.07
2023-01-15T06:57:06.463Z,9.09
2023-01-15T06:58:10.397Z,9.10
2023-01-15T06:59:14.468Z,9.10
2023-01-15T07:00:18.925Z,9.11
2023-01-15T07:01:25.609Z,9.10
2023-01-15T07:02:30.720Z,9.11
2023-01-15T07:03:34.881Z,9.13
2023-01-15T07:04:42.103Z,9.13
2023-01-15T07:05:46.010Z,9.13
2023-01-15T07:06:50.946Z,9.17
2023-01-15T07:07:55.073Z,9.17
2023-01-15T07:08:59.000Z,9.21
2023-01-15T07:10:02.855Z,9.23
2023-01-15T07:11:10.060Z,9.21
2023-01-15T07:12:14.423Z,9.23
2023-01-15T07:13:18.483Z,9.21
2023-01-15T07:14:26.859Z,9.22
2023-01-15T07:15:31.358Z,9.23
2023-01-15T07:16:37.963Z,9.22
2023-01-15T07:17:41.614Z,9.28
2023-01-15T07:18:45.417Z,9.32
2023-01-15T07:19:49.106Z,9.31
2023-01-15T07:20:56.912Z,9.33
2023-01-15T07:22:02.153Z,9.31
2023-01-15T07:23:06.849Z,9.35
2023-01-15T07:24:12.512Z,9.34
2023-01-15T07:25:19.428Z,9.36
2023-01-15T07:26:23.178Z,9.37
2023-01-15T07:27:27.856Z,9.37
2023-01-15T07:28:31.756Z,9.35
2023-01-15T07:29:35.625Z,9.35
2023-01-15T07:30:39.180Z,9.38
2023-01-15T07:31:43.691Z,9.39
2023-01-15T07:32:47.389Z,9.41
2023-01-15T07:33:51.284Z,9.39
2023-01-15T07:34:55.170Z,9.40
2023-01-15T07:35:58.813Z,9.41
2023-01-15T07:37:02.350Z,9.40
2023-01-15T07:38:05.904Z,9.40
2023-01-15T07:39:12.183Z,9.41
2023-01-15T07:40:16.300Z,9.42
2023-01-15T07:41:38.663Z,9.49
2023-01-15T07:43:00.745Z,9.47
2023-01-15T07:44:22.831Z,9.44
2023-01-15T07:45:45.214Z,9.47
2023-01-15T07:47:10.422Z,9.48
2023-01-15T07:48:33.357Z,9.52
2023-01-15T07:49:46.032Z,9.51
2023-01-15T07:50:50.140Z,9.54
2023-01-15T07:51:53.888Z,9.57
2023-01-15T07:52:57.747Z,9.56
2023-01-15T07:54:02.467Z,9.52
2023-01-15T07:55:16.509Z,9.55
2023-01-15T07:56:20.394Z,9.57
2023-01-15T07:57:24.652Z,9.54
2023-01-15T07:58:28.440Z,9.54
2023-01-15T07:59:32.223Z,9.59
2023-01-15T08:00:36.105Z,9.60
2023-01-15T08:01:40.007Z,9.59
2023-01-15T08:02:45.137Z,9.56
2023-01-15T08:03:48.960Z,9.57
2023-01-15T08:04:52.601Z,9.62
2023-01-15T08:05:57.715Z,9.67
2023-01-15T08:07:03.621Z,9.66
2023-01-15T08:08:15.097Z,9.67
2023-01-15T08:09:18.690Z,9.72
2023-01-15T08:10:23.051Z,9.73
2023-01-15T08:11:45.670Z,9.74
2023-01-15T08:13:10.591Z,9.76
2023-01-15T08:14:33.027Z,9.80
2023-01-15T08:15:43.954Z,9.82
2023-01-15T08:16:47.862Z,9.87
2023-01-15T08:17:52.794Z,9.89
2023-01-15T08:18:57.301Z,9.90
2023-01-15T08:20:03.273Z,9.99
2023-01-15T08:21:07.435Z,10.01
2023-01-15T08:22:12.122Z,10.04
2023-01-15T08:23:15.670Z,10.03
2023-01-15T08:24:19.323Z,10.07
2023-01-15T08:25:25.730Z,10.11
2023-01-15T08:26:29.226Z,10.15
2023-01-15T08:27:33.566Z,10.17
2023-01-15T08:28:37.147Z,10.20
2023-01-15T08:29:41.303Z,10.27
2023-01-15T08:30:45.126Z,10.30
2023-01-15T08:31:50.223Z,10.35
2023-01-15T08:33:00.916Z,10.36
2023-01-15T08:34:15.860Z,10.38
2023-01-15T08:35:20.225Z,10.42
2023-01-15T08:36:23.770Z,10.48
2023-01-15T08:37:27.475Z,10.49
2023-01-15T08:38:31.319Z,10.52
2023-01-15T08:39:35.169Z,10.53
2023-01-15T08:40:58.830Z,10.52
2023-01-15T08:42:02.781Z,10.56
2023-01-15T08:43:13.747Z,10.57
2023-01-15T08:44:22.007Z,10.61
2023-01-15T08:45:30.034Z,10.60
2023-01-15T08:46:37.199Z,10.63
2023-01-15T08:47:41.411Z,10.62
2023-01-15T08:48:46.551Z,10.64
2023-01-15T08:49:50.373Z,10.60
2023-01-15T08:50:54.347Z,10.64
2023-01-15T08:51:59.203Z,10.61
2023-01-15T08:53:03.599Z,10.61
2023-01-15T08:54:07.268Z,10.56
2023-01-15T08:55:11.368Z,10.57
2023-01-15T08:56:20.455Z,10.59
2023-01-15T08:57:24.261Z,10.57
2023-01-15T08:58:30.929Z,10.59
2023-01-15T08:59:34.609Z,10.59
2023-01-15T09:00:38.488Z,10.60
2023-01-15T09:01:43.060Z,10.62
2023-01-15T09:02:49.274Z,10.61
2023-01-15T09:03:53.756Z,10.69
2023-01-15T09:04:58.091Z,10.67
2023-01-15T09:06:03.244Z,10.73
2023-01-15T09:07:07.167Z,10.71
2023-01-15T09:08:11.016Z,10.75
2023-01-15T09:09:18.869Z,10.76
2023-01-15T09:10:24.094Z,10.73
2023-01-15T09:11:29.067Z,10.72
2023-01-15T09:12:32.859Z,10.70
2023-01-15T09:13:38.209Z,10.74
2023-01-15T09:14:56.683Z,10.74
2023-01-15T09:16:10.781Z,10.72
2023-01-15T09:17:15.498Z,10.75
2023-01-15T09:18:20.825Z,10.78
2023-01-15T09:19:27.341Z,10.76
2023-01-15T09:20:33.019Z,10.74
2023-01-15T09:21:38.287Z,10.77
2023-01-15T09:22:42.243Z,10.82
2023-01-15T09:23:45.777Z,10.84
2023-01-15T09:24:49.461Z,10.73
2023-01-15T09:26:00.458Z,10.76
2023-01-15T09:27:04.524Z,10.77
2023-01-15T09:28:08.986Z,10.80
2023-01-15T09:29:13.500Z,10.81
2023-01-15T09:30:21.404Z,10.76
2023-01-15T09:31:29.002Z,10.74
2023-01-15T09:32:36.092Z,10.72
2023-01-15T09:33:48.071Z,10.73
2023-01-15T09:34:57.537Z,10.72
2023-01-15T09:36:01.160Z,10.71
2023-01-15T09:37:04.783Z,10.68
2023-01-15T09:38:11.899Z,10.69
2023-01-15T09:39:15.503Z,10.66
2023-01-15T09:40:50.758Z,10.69
2023-01-15T09:42:34.006Z,10.69
2023-01-15T09:43:51.212Z,10.65
2023-01-15T09:45:15.903Z,10.59
2023-01-15T09:46:32.071Z,10.56
2023-01-15T09:48:05.933Z,10.59
2023-01-15T09:49:57.917Z,10.57
2023-01-15T09:51:35.703Z,10.51
2023-01-15T09:53:18.928Z,10.48
2023-01-15T09:55:13.959Z,10.46
2023-01-15T09:56:28.422Z,10.44
2023-01-15T09:57:36.775Z,10.44
2023-01-15T09:58:41.222Z,10.48
2023-01-15T09:59:50.971Z,10.51
2023-01-15T10:01:12.740Z,10.50
2023-01-15T10:02:47.061Z,10.50
2023-01-15T10:04:07.181Z,10.54
2023-01-15T10:05:33.596Z,10.62
2023-01-15T10:06:59.200Z,10.60
2023-01-15T10:08:31.715Z,10.62
2023-01-15T10:09:41.213Z,10.60
2023-01-15T10:11:17.690Z,10.62
2023-01-15T10:12:36.901Z,10.61
2023-01-15T10:14:07.425Z,10.62
2023-01-15T10:15:40.291Z,10.61
2023-01-15T10:16:44.601Z,10.57
2023-01-15T10:18:08.309Z,10.60
2023-01-15T10:19:14.651Z,10.63
2023-01-15T10:20:34.572Z,10.64
2023-01-15T10:22:07.268Z,10.69
2023-01-15T10:23:39.117Z,10.69
2023-01-15T10:25:02.555Z,10.75
2023-01-15T10:26:33.192Z,10.76
2023-01-15T10:27:43.510Z,10.82
2023-01-15T10:29:07.749Z,10.86
2023-01-15T10:30:43.828Z,10.87
2023-01-15T10:32:14.968Z,10.92
2023-01-15T10:33:53.230Z,10.95
2023-01-15T10:35:08.705Z,11.02
2023-01-15T10:36:37.013Z,11.09
2023-01-15T10:38:07.497Z,11.17
2023-01-15T10:39:31.279Z,11.25
2023-01-15T10:41:07.004Z,11.31
2023-01-15T10:42:59.313Z,11.36
2023-01-15T10:44:39.961Z,11.42
2023-01-15T10:45:54.456Z,11.46
2023-01-15T10:47:03.490Z,11.40
2023-01-15T10:48:27.715Z,11.41
2023-01-15T10:49:35.140Z,11.40
2023-01-15T10:50:40.225Z,11.43
2023-01-15T10:51:54.146Z,11.44
2023-01-15T10:53:30.961Z,11.45
2023-01-15T10:54:48.843Z,11.43
2023-01-15T10:56:37.005Z,11.39
2023-01-15T10:58:11.367Z,11.40
2023-01-15T10:59:28.010Z,11.37
2023-01-15T11:00:35.861Z,11.37
2023-01-15T11:01:41.526Z,11.32
2023-01-15T11:03:19.322Z,11.32
2023-01-15T11:04:26.539Z,11.35
2023-01-15T11:05:33.657Z,11.31
2023-01-15T11:06:38.329Z,11.26
2023-01-15T11:09:35.291Z,11.25
2023-01-15T11:10:43.900Z,11.19
2023-01-15T11:12:00.333Z,11.22
2023-01-15T11:13:45.075Z,11.23
2023-01-15T11:15:08.232Z,11.26
2023-01-15T11:16:45.359Z,11.29
2023-01-15T11:18:12.733Z,11.28
2023-01-15T11:19:44.770Z,11.32
2023-01-15T11:20:54.917Z,11.32
2023-01-15T11:22:02.145Z,11.32
2023-01-15T11:23:15.732Z,11.33
2023-01-15T11:24:21.178Z,11.31
2023-01-15T11:25:34.600Z,11.29
2023-01-15T11:26:39.895Z,11.30
2023-01-15T11:27:44.116Z,11.27
2023-01-15T11:28:48.112Z,11.26
2023-01-15T11:29:58.548Z,11.23
2023-01-15T11:31:04.570Z,11.24
2023-01-15T11:32:25.496Z,11.27
2023-01-15T11:33:32.310Z,11.20
2023-01-15T11:34:41.031Z,11.17
2023-01-15T11:35:58.661Z,11.20
2023-01-15T11:37:05.331Z,11.24
2023-01-15T11:38:15.523Z,11.23
2023-01-15T11:39:28.373Z,11.24
2023-01-15T11:40:32.015Z,11.27
2023-01-15T11:41:55.022Z,11.31
2023-01-15T11:43:16.983Z,11.28
2023-01-15T11:44:42.136Z,11.25
2023-01-15T11:46:11.303Z,11.30
2023-01-15T11:47:37.874Z,11.26
2023-01-15T11:49:06.494Z,11.28
2023-01-15T11:50:43.978Z,11.26
2023-01-15T11:51:51.335Z,11.15
2023-01-15T11:52:57.703Z,11.17
2023-01-15T11:54:08.350Z,11.21
2023-01-15T11:55:18.469Z,11.22
2023-01-15T11:56:28.655Z,11.21
2023-01-15T11:57:37.518Z,11.16
2023-01-15T11:58:50.550Z,11.17
2023-01-15T11:59:54.589Z,11.15
2023-01-15T12:00:59.770Z,11.16
2023-01-15T12:02:34.549Z,11.18
2023-01-15T12:03:41.537Z,11.20
2023-01-15T12:04:59.026Z,11.18
2023-01-15T12:06:13.138Z,11.22
2023-01-15T12:07:18.508Z,11.20
2023-01-15T12:09:22.865Z,11.11
2023-01-15T12:11:21.092Z,11.06
2023-01-15T12:13:03.952Z,10.90
2023-01-15T12:14:59.129Z,10.91
2023-01-15T12:16:11.656Z,10.93
2023-01-15T12:18:00.478Z,10.88
2023-01-15T12:19:22.886Z,10.83
2023-01-15T12:21:17.485Z,10.80
2023-01-15T12:22:45.918Z,10.73
2023-01-15T12:24:27.024Z,10.66
2023-01-15T12:26:00.476Z,10.62
2023-01-15T12:27:44.139Z,10.58
2023-01-15T12:29:52.531Z,10.48
2023-01-15T12:31:19.079Z,10.48
2023-01-15T12:32:42.670Z,10.43
2023-01-15T12:34:24.913Z,10.38
2023-01-15T12:35:36.051Z,10.36
2023-01-15T12:36:59.488Z,10.34
2023-01-15T12:38:52.257Z,10.24
2023-01-15T12:40:07.079Z,10.20
2023-01-15T12:41:58.876Z,10.13
2023-01-15T12:43:22.951Z,10.08
2023-01-15T12:45:08.969Z,10.01
2023-01-15T12:46:29.188Z,9.96
2023-01-15T12:48:02.418Z,9.91
2023-01-15T12:49:37.744Z,9.90
2023-01-15T12:50:57.559Z,9.92
2023-01-15T12:52:22.146Z,9.87
2023-01-15T12:53:56.213Z,9.80
2023-01-15T12:55:13.606Z,9.83
2023-01-15T12:57:06.823Z,9.82
2023-01-15T12:58:47.274Z,9.76
2023-01-15T13:00:14.299Z,9.71
2023-01-15T13:02:10.182Z,9.65
2023-01-15T13:03:46.427Z,9.64
2023-01-15T13:05:26.245Z,9.58
2023-01-15T13:06:34.208Z,9.60
2023-01-15T13:07:59.768Z,9.60
2023-01-15T13:09:25.015Z,9.55
2023-01-15T13:10:38.674Z,9.50
2023-01-15T13:11:42.892Z,9.52
2023-01-15T13:13:15.520Z,9.50
2023-01-15T13:14:24.670Z,9.51
2023-01-15T13:15:37.620Z,9.50
2023-01-15T13:17:12.834Z,9.46
2023-01-15T13:18:29.191Z,9.45
2023-01-15T13:20:06.230Z,9.44
2023-01-15T13:21:17.287Z,9.42
2023-01-15T13:22:33.930Z,9.40
2023-01-15T13:24:27.736Z,9.39
2023-01-15T13:25:42.183Z,9.35
2023-01-15T13:27:22.383Z,9.36
2023-01-15T13:28:54.284Z,9.36
2023-01-15T13:30:58.370Z,9.35
2023-01-15T13:32:33.668Z,9.31
2023-01-15T13:33:48.986Z,9.33
2023-01-15T13:35:15.212Z,9.38
2023-01-15T13:36:51.481Z,9.33
2023-01-15T13:38:06.419Z,9.34
2023-01-15T13:39:25.367Z,9.37
2023-01-15T13:40:38.408Z,9.42
2023-01-15T13:42:13.312Z,9.46
2023-01-15T13:43:44.518Z,9.52
2023-01-15T13:44:54.344Z,9.54
2023-01-15T13:46:04.555Z,9.57
2023-01-15T13:47:19.822Z,9.59
2023-01-15T13:48:41.176Z,9.57
2023-01-15T13:50:17.213Z,9.54
2023-01-15T13:51:39.251Z,9.55
2023-01-15T13:52:46.213Z,9.49
2023-01-15T13:54:02.101Z,9.47
2023-01-15T13:55:38.902Z,9.53
2023-01-15T13:56:44.774Z,9.55
2023-01-15T13:57:52.695Z,9.48
2023-01-15T13:59:28.247Z,9.44
2023-01-15T14:00:37.386Z,9.44
2023-01-15T14:01:42.321Z,9.43
2023-01-15T14:02:55.823Z,9.50
2023-01-15T14:04:09.779Z,9.50
2023-01-15T14:05:32.107Z,9.47
2023-01-15T14:06:51.163Z,9.46
2023-01-15T14:07:59.299Z,9.47
2023-01-15T14:09:06.842Z,9.46
2023-01-15T14:10:37.230Z,9.46
2023-01-15T14:12:08.382Z,9.51
2023-01-15T14:14:02.413Z,9.52
2023-01-15T14:15:31.269Z,9.51
2023-01-15T14:16:52.581Z,9.55
2023-01-15T14:18:21.884Z,9.56
2023-01-15T14:20:04.902Z,9.51
2023-01-15T14:22:04.637Z,9.54
2023-01-15T14:23:31.338Z,9.52
2023-01-15T14:25:18.870Z,9.54
2023-01-15T14:26:37.709Z,9.52
2023-01-15T14:28:02.335Z,9.51
2023-01-15T14:29:53.580Z,9.55
2023-01-15T14:31:50.862Z,9.52
2023-01-15T14:33:14.199Z,9.53
2023-01-15T14:34:27.114Z,9.57
2023-01-15T14:35:48.777Z,9.61
2023-01-15T14:37:23.151Z,9.61
2023-01-15T14:38:32.003Z,9.63
2023-01-15T14:39:59.215Z,9.62
2023-01-15T14:41:09.184Z,9.67
2023-01-15T14:42:57.079Z,9.66
2023-01-15T14:44:07.915Z,9.66
2023-01-15T14:45:12.547Z,9.65
2023-01-15T14:46:34.606Z,9.65
2023-01-15T14:47:58.435Z,9.68
2023-01-15T14:49:02.959Z,9.61
2023-01-15T14:50:36.341Z,9.60
2023-01-15T14:51:55.236Z,9.62
2023-01-15T14:53:14.685Z,9.63
2023-01-15T14:54:30.925Z,9.65
2023-01-15T14:56:27.400Z,9.65
2023-01-15T14:57:43.176Z,9.65
2023-01-15T14:59:22.787Z,9.63
2023-01-15T15:00:38.612Z,9.67
2023-01-15T15:01:57.657Z,9.68
2023-01-15T15:03:12.716Z,9.67
2023-01-15T15:04:56.653Z,9.64
2023-01-15T15:06:01.784Z,9.58
2023-01-15T15:07:15.624Z,9.64
2023-01-15T15:08:22.807Z,9.61
2023-01-15T15:09:38.387Z,9.62
2023-01-15T15:10:52.538Z,9.64
2023-01-15T15:12:44.631Z,9.62
2023-01-15T15:13:55.191Z,9.58
2023-01-15T15:15:10.768Z,9.58
2023-01-15T15:16:32.606Z,9.58
2023-01-15T15:18:13.755Z,9.59
2023-01-15T15:19:33.691Z,9.60
2023-01-15T15:21:09.846Z,9.61
2023-01-15T15:22:21.248Z,9.63
2023-01-15T15:23:47.182Z,9.63
2023-01-15T15:24:55.350Z,9.66
2023-01-15T15:26:08.131Z,9.63
2023-01-15T15:27:24.413Z,9.55
2023-01-15T15:28:33.674Z,9.57
2023-01-15T15:29:39.714Z,9.63
2023-01-15T15:30:49.266Z,9.64
2023-01-15T15:32:02.593Z,9.68
2023-01-15T15:33:07.546Z,9.68
2023-01-15T15:34:40.944Z,9.61
2023-01-15T15:35:57.345Z,9.65
2023-01-15T15:37:20.685Z,9.64
2023-01-15T15:38:29.537Z,9.63
2023-01-15T15:40:06.292Z,9.62
2023-01-15T15:41:13.687Z,9.67
2023-01-15T15:42:48.298Z,9.70
2023-01-15T15:44:17.865Z,9.67
2023-01-15T15:45:48.950Z,9.71
2023-01-15T15:47:11.824Z,9.75
2023-01-15T15:48:42.449Z,9.76
2023-01-15T15:49:47.732Z,9.74
2023-01-15T15:50:55.214Z,9.77
2023-01-15T15:52:00.929Z,9.78
2023-01-15T15:53:07.222Z,9.81
2023-01-15T15:54:31.290Z,9.78
2023-01-15T15:55:44.174Z,9.78
2023-01-15T15:57:12.776Z,9.81
2023-01-15T15:58:31.329Z,9.83
2023-01-15T15:59:49.172Z,9.77
2023-01-15T16:00:56.898Z,9.77
2023-01-15T16:02:19.825Z,9.79
2023-01-15T16:03:31.728Z,9.80
2023-01-15T16:04:37.293Z,9.79
2023-01-15T16:05:41.879Z,9.82
2023-01-15T16:06:47.313Z,9.84
2023-01-15T16:07:54.260Z,9.83
2023-01-15T16:09:05.786Z,9.85
2023-01-15T16:10:26.510Z,9.86
2023-01-15T16:11:33.498Z,9.86
2023-01-15T16:12:52.520Z,9.89
2023-01-15T16:13:59.208Z,9.89